Tununak, Alaska
Current Conditions -  °F | °C
As of 10:56 PM on Thursday 23 Oct 2014 (Local Time) from PAOO Reporting Station
Clear Clear  
Wind Chill: 23°   Ceiling: Unl
Heat Index: 33°   Visibility: 10mi
Dew Point: 30°   Wind: 14mph
Humidity: 89%   Direction: 280°W
Pressure: 29.82"   Gusts: NA
Location:  60.58°N, 165.25°W
Report Text: PAOO 240656Z AUTO 28012KT 10SM CLR 01/M01 A2982 RMK AO2 TSNO T00051011 SLP101 $
Loading
Personal Weather Stations






























Interactive Weather Map
Tropical Storm Tracking
New forecast layout! Learn more

10-Day Weather Forecast

Advertisements
Track Severe Weather on mobile